createdAt,value
2018-08-31T00:00:30.879Z,15.47
2018-08-31T00:01:30.871Z,15.52
2018-08-31T00:02:30.871Z,15.47
2018-08-31T00:03:30.869Z,15.54
2018-08-31T00:04:30.866Z,15.54
2018-08-31T00:05:30.865Z,15.42
2018-08-31T00:06:30.864Z,15.39
2018-08-31T00:07:30.863Z,15.43
2018-08-31T00:08:30.862Z,15.35
2018-08-31T00:09:30.858Z,15.39
2018-08-31T00:10:30.857Z,15.39
2018-08-31T00:11:30.856Z,15.31
2018-08-31T00:12:30.854Z,15.39
2018-08-31T00:13:30.852Z,15.28
2018-08-31T00:14:30.850Z,15.17
2018-08-31T00:15:30.849Z,15.24
2018-08-31T00:16:30.847Z,15.28
2018-08-31T00:17:30.843Z,15.27
2018-08-31T00:18:30.844Z,15.10
2018-08-31T00:19:30.842Z,15.17
2018-08-31T00:20:30.839Z,15.22
2018-08-31T00:21:30.842Z,15.24
2018-08-31T00:22:30.837Z,15.10
2018-08-31T00:23:30.836Z,15.11
2018-08-31T00:24:30.834Z,15.11
2018-08-31T00:25:30.831Z,15.11
2018-08-31T00:26:30.831Z,15.25
2018-08-31T00:27:30.828Z,15.22
2018-08-31T00:28:30.828Z,15.15
2018-08-31T00:29:30.825Z,15.09
2018-08-31T00:30:30.822Z,15.14
2018-08-31T00:31:30.823Z,15.07
2018-08-31T00:32:30.819Z,15.15
2018-08-31T00:33:30.823Z,15.10
2018-08-31T00:34:30.820Z,15.14
2018-08-31T00:35:30.812Z,15.14
2018-08-31T00:36:30.812Z,15.06
2018-08-31T00:37:30.813Z,15.09
2018-08-31T00:38:30.810Z,15.07
2018-08-31T00:39:30.807Z,15.06
2018-08-31T00:40:30.806Z,15.04
2018-08-31T00:41:30.803Z,15.02
2018-08-31T00:42:30.801Z,15.04
2018-08-31T00:43:30.802Z,14.97
2018-08-31T00:44:30.798Z,14.91
2018-08-31T00:45:30.797Z,14.88
2018-08-31T00:46:30.793Z,14.86
2018-08-31T00:47:30.791Z,14.89
2018-08-31T00:48:30.793Z,14.94
2018-08-31T00:49:30.789Z,14.84
2018-08-31T00:50:30.787Z,14.85
2018-08-31T00:51:30.784Z,14.85
2018-08-31T00:52:30.781Z,14.84
2018-08-31T00:53:30.783Z,14.72
2018-08-31T00:54:30.779Z,14.86
2018-08-31T00:55:30.774Z,14.84
2018-08-31T00:56:30.776Z,14.79
2018-08-31T00:57:30.773Z,14.78
2018-08-31T00:58:30.771Z,14.70
2018-08-31T00:59:30.770Z,14.73
2018-08-31T01:00:30.770Z,14.69
2018-08-31T01:01:30.761Z,14.84
2018-08-31T01:02:30.764Z,14.72
2018-08-31T01:03:30.762Z,14.78
2018-08-31T01:04:30.761Z,14.77
2018-08-31T01:05:30.757Z,14.72
2018-08-31T01:06:30.757Z,14.78
2018-08-31T01:07:30.755Z,14.70
2018-08-31T01:08:30.752Z,14.68
2018-08-31T01:09:30.751Z,14.68
2018-08-31T01:10:30.749Z,14.59
2018-08-31T01:11:30.747Z,14.69
2018-08-31T01:12:30.748Z,14.51
2018-08-31T01:13:30.742Z,14.62
2018-08-31T01:14:30.743Z,14.58
2018-08-31T01:15:30.744Z,14.53
2018-08-31T01:16:30.739Z,14.55
2018-08-31T01:17:30.732Z,14.58
2018-08-31T01:18:30.735Z,14.54
2018-08-31T01:19:30.728Z,14.50
2018-08-31T01:20:30.726Z,14.53
2018-08-31T01:21:30.727Z,14.43
2018-08-31T01:22:30.726Z,14.45
2018-08-31T01:23:30.723Z,14.41
2018-08-31T01:24:30.722Z,14.43
2018-08-31T01:25:30.718Z,14.41
2018-08-31T01:26:30.717Z,14.32
2018-08-31T01:27:30.717Z,14.36
2018-08-31T01:28:30.712Z,14.35
2018-08-31T01:29:30.711Z,14.33
2018-08-31T01:30:30.715Z,14.35
2018-08-31T01:31:30.707Z,14.33
2018-08-31T01:32:30.705Z,14.29
2018-08-31T01:33:30.700Z,14.25
2018-08-31T01:34:30.701Z,14.32
2018-08-31T01:35:30.698Z,14.28
2018-08-31T01:36:30.695Z,14.18
2018-08-31T01:37:30.693Z,14.20
2018-08-31T01:38:30.692Z,14.23
2018-08-31T01:39:30.691Z,14.15
2018-08-31T01:40:30.687Z,14.20
2018-08-31T01:41:30.686Z,14.10
2018-08-31T01:42:30.687Z,14.17
2018-08-31T01:43:30.679Z,14.08
2018-08-31T01:44:30.676Z,14.04
2018-08-31T01:45:30.674Z,13.99
2018-08-31T01:46:30.673Z,14.04
2018-08-31T01:47:30.671Z,14.05
2018-08-31T01:48:30.670Z,14.05
2018-08-31T01:49:30.666Z,14.05
2018-08-31T01:50:30.664Z,14.05
2018-08-31T01:51:30.663Z,14.08
2018-08-31T01:52:30.677Z,14.07
2018-08-31T01:53:30.657Z,14.03
2018-08-31T01:54:30.657Z,13.97
2018-08-31T01:55:30.652Z,13.99
2018-08-31T01:56:30.651Z,13.95
2018-08-31T01:57:30.648Z,13.95
2018-08-31T01:58:30.646Z,13.85
2018-08-31T01:59:30.643Z,13.93
2018-08-31T02:00:30.642Z,13.85
2018-08-31T02:01:30.639Z,13.89
2018-08-31T02:02:30.637Z,13.90
2018-08-31T02:03:30.630Z,13.78
2018-08-31T02:04:30.633Z,13.90
2018-08-31T02:05:30.629Z,13.77
2018-08-31T02:06:30.626Z,13.72
2018-08-31T02:07:30.624Z,13.70
2018-08-31T02:08:30.623Z,13.74
2018-08-31T02:09:30.618Z,13.78
2018-08-31T02:10:30.615Z,13.74
2018-08-31T02:11:30.615Z,13.74
2018-08-31T02:12:30.611Z,13.72
2018-08-31T02:13:30.610Z,13.68
2018-08-31T02:14:30.605Z,13.67
2018-08-31T02:15:30.605Z,13.62
2018-08-31T02:16:30.606Z,13.68
2018-08-31T02:17:30.598Z,13.68
2018-08-31T02:18:30.597Z,13.67
2018-08-31T02:19:30.594Z,13.62
2018-08-31T02:20:30.592Z,13.70
2018-08-31T02:21:30.590Z,13.59
2018-08-31T02:22:30.585Z,13.54
2018-08-31T02:23:30.583Z,13.54
2018-08-31T02:24:30.582Z,13.54
2018-08-31T02:25:30.578Z,13.57
2018-08-31T02:26:30.578Z,13.56
2018-08-31T02:27:30.575Z,13.47
2018-08-31T02:28:30.571Z,13.49
2018-08-31T02:29:30.567Z,13.38
2018-08-31T02:30:30.568Z,13.37
2018-08-31T02:31:30.563Z,13.46
2018-08-31T02:32:30.559Z,13.31
2018-08-31T02:33:30.558Z,13.37
2018-08-31T02:34:30.556Z,13.41
2018-08-31T02:35:30.552Z,13.41
2018-08-31T02:36:30.557Z,13.39
2018-08-31T02:37:30.549Z,13.38
2018-08-31T02:38:30.545Z,13.37
2018-08-31T02:39:30.544Z,13.30
2018-08-31T02:40:30.540Z,13.30
2018-08-31T02:41:30.536Z,13.28
2018-08-31T02:42:30.537Z,13.20
2018-08-31T02:43:30.532Z,13.27
2018-08-31T02:44:30.530Z,13.25
2018-08-31T02:45:30.525Z,13.18
2018-08-31T02:46:30.522Z,13.27
2018-08-31T02:47:30.524Z,13.20
2018-08-31T02:48:30.518Z,13.19
2018-08-31T02:49:30.515Z,13.22
2018-08-31T02:50:30.513Z,13.19
2018-08-31T02:51:30.509Z,13.13
2018-08-31T02:52:30.508Z,13.18
2018-08-31T02:53:30.511Z,13.18
2018-08-31T02:54:30.500Z,13.08
2018-08-31T02:55:30.499Z,13.11
2018-08-31T02:56:30.496Z,13.11
2018-08-31T02:57:30.493Z,13.13
2018-08-31T02:58:30.487Z,13.11
2018-08-31T02:59:30.493Z,13.12
2018-08-31T03:00:30.485Z,13.12
2018-08-31T03:01:30.481Z,13.12
2018-08-31T03:02:30.478Z,13.09
2018-08-31T03:03:30.477Z,13.11
2018-08-31T03:04:30.474Z,13.13
2018-08-31T03:05:30.471Z,13.15
2018-08-31T03:06:30.468Z,13.11
2018-08-31T03:07:30.467Z,13.11
2018-08-31T03:08:30.463Z,13.16
2018-08-31T03:09:30.460Z,13.04
2018-08-31T03:10:30.459Z,13.11
2018-08-31T03:11:30.479Z,12.98
2018-08-31T03:12:30.450Z,13.04
2018-08-31T03:13:30.449Z,13.12
2018-08-31T03:14:30.448Z,12.94
2018-08-31T03:15:30.443Z,12.95
2018-08-31T03:16:30.440Z,12.93
2018-08-31T03:17:30.437Z,12.93
2018-08-31T03:18:30.433Z,12.91
2018-08-31T03:19:30.431Z,12.91
2018-08-31T03:20:30.428Z,12.79
2018-08-31T03:21:30.425Z,12.91
2018-08-31T03:22:30.422Z,12.98
2018-08-31T03:23:30.420Z,12.80
2018-08-31T03:24:30.417Z,12.80
2018-08-31T03:25:30.412Z,12.83
2018-08-31T03:26:30.412Z,12.90
2018-08-31T03:27:30.408Z,12.91
2018-08-31T03:28:30.407Z,12.90
2018-08-31T03:29:30.402Z,12.95
2018-08-31T03:30:30.398Z,12.95
2018-08-31T03:31:30.396Z,12.95
2018-08-31T03:32:30.393Z,12.91
2018-08-31T03:33:30.390Z,12.91
2018-08-31T03:34:30.390Z,13.01
2018-08-31T03:35:30.383Z,13.01
2018-08-31T03:36:30.382Z,13.01
2018-08-31T03:37:30.377Z,12.94
2018-08-31T03:38:30.376Z,13.03
2018-08-31T03:39:30.375Z,13.04
2018-08-31T03:40:30.371Z,13.05
2018-08-31T03:41:30.372Z,13.11
2018-08-31T03:42:30.364Z,13.12
2018-08-31T03:43:30.360Z,13.05
2018-08-31T03:44:30.365Z,13.11
2018-08-31T03:45:30.354Z,13.12
2018-08-31T03:46:30.351Z,13.11
2018-08-31T03:47:30.351Z,13.13
2018-08-31T03:48:30.347Z,13.15
2018-08-31T03:49:30.343Z,13.28
2018-08-31T03:50:30.343Z,13.22
2018-08-31T03:51:30.339Z,13.16
2018-08-31T03:52:30.335Z,13.20
2018-08-31T03:53:30.334Z,13.23
2018-08-31T03:54:30.337Z,13.18
2018-08-31T03:55:30.328Z,13.23
2018-08-31T03:56:30.325Z,13.22
2018-08-31T03:57:30.320Z,13.23
2018-08-31T03:58:30.320Z,13.20
2018-08-31T03:59:30.319Z,13.25
2018-08-31T04:00:30.316Z,13.18
2018-08-31T04:01:30.315Z,13.18
2018-08-31T04:02:30.307Z,13.19
2018-08-31T04:03:30.304Z,13.30
2018-08-31T04:04:30.303Z,13.30
2018-08-31T04:05:30.301Z,13.31
2018-08-31T04:06:30.298Z,13.37
2018-08-31T04:07:30.296Z,13.35
2018-08-31T04:08:30.293Z,13.31
2018-08-31T04:09:30.290Z,13.33
2018-08-31T04:10:30.286Z,13.38
2018-08-31T04:11:30.284Z,13.41
2018-08-31T04:12:30.288Z,13.35
2018-08-31T04:13:30.277Z,13.31
2018-08-31T04:14:30.274Z,13.31
2018-08-31T04:15:30.273Z,13.25
2018-08-31T04:16:30.269Z,13.27
2018-08-31T04:17:30.268Z,13.31
2018-08-31T04:18:30.266Z,13.31
2018-08-31T04:19:30.263Z,13.23
2018-08-31T04:20:30.261Z,13.22
2018-08-31T04:21:30.256Z,13.22
2018-08-31T04:22:30.255Z,13.20
2018-08-31T04:23:30.246Z,13.22
2018-08-31T04:24:30.252Z,13.22
2018-08-31T04:25:30.246Z,13.23
2018-08-31T04:26:30.249Z,13.27
2018-08-31T04:27:30.241Z,13.16
2018-08-31T04:28:30.238Z,13.25
2018-08-31T04:29:30.234Z,13.28
2018-08-31T04:30:30.233Z,13.18
2018-08-31T04:31:30.232Z,13.28
2018-08-31T04:32:30.227Z,13.31
2018-08-31T04:33:30.246Z,13.19
2018-08-31T04:34:30.224Z,13.20
2018-08-31T04:35:30.215Z,13.23
2018-08-31T04:36:30.219Z,13.22
2018-08-31T04:37:30.213Z,13.22
2018-08-31T04:38:30.208Z,13.31
2018-08-31T04:39:30.206Z,13.35
2018-08-31T04:40:30.209Z,13.31
2018-08-31T04:41:30.209Z,13.35
2018-08-31T04:42:30.200Z,13.23
2018-08-31T04:43:30.200Z,13.30
2018-08-31T04:44:30.200Z,13.31
2018-08-31T04:45:30.189Z,13.31
2018-08-31T04:46:30.187Z,13.37
2018-08-31T04:47:30.187Z,13.42
2018-08-31T04:48:30.185Z,13.42
2018-08-31T04:49:30.181Z,13.38
2018-08-31T04:50:30.221Z,13.38
2018-08-31T04:51:30.177Z,13.42
2018-08-31T04:52:30.174Z,13.44
2018-08-31T04:53:30.170Z,13.44
2018-08-31T04:54:30.164Z,13.52
2018-08-31T04:55:30.165Z,13.56
2018-08-31T04:56:30.164Z,13.46
2018-08-31T04:57:30.159Z,13.54
2018-08-31T04:58:30.159Z,13.49
2018-08-31T04:59:30.156Z,13.56
2018-08-31T05:00:30.153Z,13.53
2018-08-31T05:01:30.150Z,13.56
2018-08-31T05:02:30.150Z,13.53
2018-08-31T05:03:30.144Z,13.63
2018-08-31T05:04:30.148Z,13.68
2018-08-31T05:05:30.138Z,13.65
2018-08-31T05:06:30.143Z,13.62
2018-08-31T05:07:30.135Z,13.68
2018-08-31T05:08:30.127Z,13.67
2018-08-31T05:09:30.126Z,13.68
2018-08-31T05:10:30.131Z,13.65
2018-08-31T05:11:30.124Z,13.63
2018-08-31T05:12:30.123Z,13.62
2018-08-31T05:13:30.118Z,13.70
2018-08-31T05:14:30.117Z,13.65
2018-08-31T05:15:30.114Z,13.72
2018-08-31T05:16:30.110Z,13.70
2018-08-31T05:17:30.110Z,13.63
2018-08-31T05:18:30.109Z,13.63
2018-08-31T05:19:30.114Z,13.65
2018-08-31T05:20:30.101Z,13.68
2018-08-31T05:21:30.099Z,13.71
2018-08-31T05:22:30.132Z,13.72
2018-08-31T05:23:30.096Z,13.71
2018-08-31T05:24:30.094Z,13.70
2018-08-31T05:25:30.088Z,13.77
2018-08-31T05:26:30.085Z,13.63
2018-08-31T05:27:30.088Z,13.75
2018-08-31T05:28:30.135Z,13.65
2018-08-31T05:29:30.079Z,13.70
2018-08-31T05:30:30.075Z,13.71
2018-08-31T05:31:30.076Z,13.81
2018-08-31T05:32:30.066Z,13.67
2018-08-31T05:33:30.071Z,13.75
2018-08-31T05:34:30.069Z,13.85
2018-08-31T05:35:30.064Z,13.89
2018-08-31T05:36:30.060Z,13.86
2018-08-31T05:37:30.057Z,13.86
2018-08-31T05:38:30.054Z,13.86
2018-08-31T05:39:30.053Z,13.89
2018-08-31T05:40:30.052Z,13.90
2018-08-31T05:41:30.045Z,13.95
2018-08-31T05:42:30.089Z,13.90
2018-08-31T05:43:30.044Z,13.85
2018-08-31T05:44:30.050Z,13.93
2018-08-31T05:45:30.040Z,13.95
2018-08-31T05:46:30.036Z,13.95
2018-08-31T05:47:30.036Z,13.96
2018-08-31T05:48:30.040Z,13.93
2018-08-31T05:49:30.028Z,13.93
2018-08-31T05:50:30.022Z,13.99
2018-08-31T05:51:30.026Z,14.07
2018-08-31T05:52:30.020Z,14.12
2018-08-31T05:53:30.042Z,14.20
2018-08-31T05:54:30.017Z,14.23
2018-08-31T05:55:30.011Z,14.28
2018-08-31T05:56:30.010Z,14.40
2018-08-31T05:57:30.006Z,14.36
2018-08-31T05:58:30.004Z,14.44
2018-08-31T05:59:30.001Z,14.36
2018-08-31T06:00:29.999Z,14.30
2018-08-31T06:01:29.994Z,14.20
2018-08-31T06:02:29.993Z,14.40
2018-08-31T06:03:30.000Z,14.33
2018-08-31T06:04:29.988Z,14.30
2018-08-31T06:05:29.986Z,14.32
2018-08-31T06:06:29.984Z,14.41
2018-08-31T06:07:29.985Z,14.30
2018-08-31T06:08:29.982Z,14.35
2018-08-31T06:09:29.976Z,14.45
2018-08-31T06:10:29.978Z,14.41
2018-08-31T06:11:29.972Z,14.53
2018-08-31T06:12:29.976Z,14.65
2018-08-31T06:13:29.968Z,14.70
2018-08-31T06:14:29.964Z,14.68
2018-08-31T06:15:29.965Z,14.79
2018-08-31T06:16:29.962Z,14.77
2018-08-31T06:17:29.958Z,14.78
2018-08-31T06:18:29.955Z,14.65
2018-08-31T06:19:29.956Z,14.82
2018-08-31T06:20:29.953Z,14.72
2018-08-31T06:21:29.951Z,14.82
2018-08-31T06:22:29.948Z,14.88
2018-08-31T06:23:29.945Z,15.03
2018-08-31T06:24:29.939Z,14.96
2018-08-31T06:25:29.940Z,14.99
2018-08-31T06:26:29.937Z,15.02
2018-08-31T06:27:29.938Z,15.11
2018-08-31T06:28:29.936Z,15.09
2018-08-31T06:29:29.931Z,15.04
2018-08-31T06:30:29.938Z,15.02
2018-08-31T06:31:29.929Z,15.06
2018-08-31T06:32:29.954Z,15.15
2018-08-31T06:33:29.930Z,15.11
2018-08-31T06:34:29.924Z,15.06
2018-08-31T06:35:29.919Z,15.17
2018-08-31T06:36:29.921Z,15.17
2018-08-31T06:37:29.920Z,15.07
2018-08-31T06:38:29.919Z,15.06
2018-08-31T06:39:29.917Z,14.91
2018-08-31T06:40:29.910Z,14.89
2018-08-31T06:41:29.910Z,14.88
2018-08-31T06:42:29.908Z,15.04
2018-08-31T06:43:29.906Z,15.03
2018-08-31T06:44:29.906Z,15.07
2018-08-31T06:45:29.904Z,15.15
2018-08-31T06:46:29.902Z,15.11
2018-08-31T06:47:29.899Z,15.28
2018-08-31T06:48:29.895Z,15.27
2018-08-31T06:49:29.892Z,15.22
2018-08-31T06:50:29.893Z,15.10
2018-08-31T06:51:29.936Z,15.09
2018-08-31T06:52:29.893Z,14.92
2018-08-31T06:53:29.887Z,14.73
2018-08-31T06:54:29.886Z,14.70
2018-08-31T06:55:29.883Z,14.77
2018-08-31T06:56:29.882Z,14.72
2018-08-31T06:57:29.880Z,14.68
2018-08-31T06:58:29.879Z,14.66
2018-08-31T06:59:29.876Z,14.77
2018-08-31T07:00:29.874Z,14.68
2018-08-31T07:01:29.872Z,14.78
2018-08-31T07:02:29.866Z,14.77
2018-08-31T07:03:29.865Z,14.81
2018-08-31T07:04:29.866Z,14.84
2018-08-31T07:05:29.864Z,14.91
2018-08-31T07:06:29.864Z,14.82
2018-08-31T07:07:29.860Z,14.73
2018-08-31T07:08:29.857Z,14.81
2018-08-31T07:09:29.865Z,14.91
2018-08-31T07:10:29.852Z,14.89
2018-08-31T07:11:29.860Z,14.99
2018-08-31T07:12:29.907Z,14.99
2018-08-31T07:13:29.846Z,14.97
2018-08-31T07:14:29.843Z,15.06
2018-08-31T07:15:29.843Z,15.10
2018-08-31T07:16:29.847Z,15.10
2018-08-31T07:17:29.837Z,15.10
2018-08-31T07:18:29.837Z,15.09
2018-08-31T07:19:29.924Z,15.15
2018-08-31T07:20:29.841Z,15.22
2018-08-31T07:21:29.834Z,15.15
2018-08-31T07:22:29.830Z,15.21
2018-08-31T07:23:29.829Z,15.11
2018-08-31T07:24:29.829Z,15.15
2018-08-31T07:25:29.824Z,15.11
2018-08-31T07:26:29.879Z,15.00
2018-08-31T07:27:29.818Z,15.06
2018-08-31T07:28:29.818Z,15.03
2018-08-31T07:29:29.820Z,15.03
2018-08-31T07:30:29.814Z,15.03
2018-08-31T07:31:29.812Z,15.09
2018-08-31T07:32:29.829Z,15.11
2018-08-31T07:33:29.808Z,15.25
2018-08-31T07:34:29.815Z,15.22
2018-08-31T07:35:29.824Z,15.31
2018-08-31T07:36:30.043Z,15.40
2018-08-31T07:37:29.826Z,15.42
2018-08-31T07:38:29.888Z,15.46
2018-08-31T07:39:29.807Z,15.57
2018-08-31T07:40:29.980Z,15.61
2018-08-31T07:41:30.171Z,15.61
2018-08-31T07:42:29.794Z,15.54
2018-08-31T07:43:29.792Z,15.52
2018-08-31T07:44:29.790Z,15.52
2018-08-31T07:45:29.823Z,15.61
2018-08-31T07:46:29.787Z,15.52
2018-08-31T07:47:29.786Z,15.54
2018-08-31T07:48:29.792Z,15.61
2018-08-31T07:49:29.811Z,15.58
2018-08-31T07:50:29.778Z,15.59
2018-08-31T07:51:29.776Z,15.61
2018-08-31T07:52:29.777Z,15.57
2018-08-31T07:53:29.779Z,15.52
2018-08-31T07:54:29.769Z,15.55
2018-08-31T07:55:29.772Z,15.64
2018-08-31T07:56:29.771Z,15.57
2018-08-31T07:57:29.771Z,15.55
2018-08-31T07:58:29.769Z,15.59
2018-08-31T07:59:29.767Z,15.65
2018-08-31T08:00:29.765Z,15.80
2018-08-31T08:01:29.770Z,15.82
2018-08-31T08:02:29.763Z,15.90
2018-08-31T08:03:29.759Z,15.84
2018-08-31T08:04:29.760Z,15.83
2018-08-31T08:05:29.818Z,15.84
2018-08-31T08:06:29.758Z,15.95
2018-08-31T08:07:29.827Z,15.98
2018-08-31T08:08:29.755Z,15.97
2018-08-31T08:09:29.759Z,15.94
2018-08-31T08:10:29.752Z,15.91
2018-08-31T08:11:29.748Z,15.88
2018-08-31T08:12:29.751Z,15.86
2018-08-31T08:13:29.752Z,15.82
2018-08-31T08:14:29.747Z,15.98
2018-08-31T08:15:29.750Z,15.95
2018-08-31T08:16:29.752Z,16.09
2018-08-31T08:17:29.747Z,15.98
2018-08-31T08:18:29.741Z,16.09
2018-08-31T08:19:29.741Z,15.98
2018-08-31T08:20:29.748Z,15.92
2018-08-31T08:21:29.741Z,15.90
2018-08-31T08:22:29.737Z,15.86
2018-08-31T08:23:29.736Z,15.94
2018-08-31T08:24:29.734Z,15.94
2018-08-31T08:25:29.732Z,15.92
2018-08-31T08:26:29.732Z,15.90
2018-08-31T08:27:29.729Z,16.00
2018-08-31T08:28:29.783Z,16.05
2018-08-31T08:29:29.728Z,16.17
2018-08-31T08:30:29.727Z,16.38
2018-08-31T08:31:29.724Z,16.49
2018-08-31T08:32:29.725Z,16.65
2018-08-31T08:33:29.723Z,16.83
2018-08-31T08:34:29.725Z,17.02
2018-08-31T08:35:29.723Z,17.06
2018-08-31T08:36:29.725Z,17.14
2018-08-31T08:37:29.718Z,17.14
2018-08-31T08:38:29.726Z,16.99
2018-08-31T08:39:29.716Z,16.97
2018-08-31T08:40:29.719Z,17.06
2018-08-31T08:41:29.715Z,17.20
2018-08-31T08:42:29.755Z,17.08
2018-08-31T08:43:29.714Z,17.16
2018-08-31T08:44:29.718Z,17.22
2018-08-31T08:45:29.714Z,17.29
2018-08-31T08:46:29.714Z,17.27
2018-08-31T08:47:29.713Z,17.39
2018-08-31T08:48:29.756Z,17.48
2018-08-31T08:49:29.713Z,17.49
2018-08-31T08:50:29.712Z,17.46
2018-08-31T08:51:29.716Z,17.45
2018-08-31T08:52:29.712Z,17.63
2018-08-31T08:53:29.711Z,17.70
2018-08-31T08:54:29.708Z,17.83
2018-08-31T08:55:29.711Z,17.94
2018-08-31T08:56:29.708Z,18.00
2018-08-31T08:57:29.709Z,17.95
2018-08-31T08:58:29.721Z,18.11
2018-08-31T08:59:29.709Z,17.86
2018-08-31T09:00:29.709Z,17.89
2018-08-31T09:01:29.709Z,17.97
2018-08-31T09:02:29.705Z,18.04
2018-08-31T09:03:29.717Z,17.98
2018-08-31T09:04:29.708Z,18.00
2018-08-31T09:05:29.728Z,17.98
2018-08-31T09:06:29.720Z,18.16
2018-08-31T09:07:29.707Z,18.25
2018-08-31T09:08:29.710Z,18.31
2018-08-31T09:09:29.706Z,18.37
2018-08-31T09:10:29.706Z,18.40
2018-08-31T09:11:29.706Z,18.40
2018-08-31T09:12:29.875Z,18.56
2018-08-31T09:13:29.707Z,18.62
2018-08-31T09:14:29.707Z,18.71
2018-08-31T09:15:29.706Z,18.80
2018-08-31T09:16:29.712Z,19.04
2018-08-31T09:17:29.706Z,19.19
2018-08-31T09:18:29.798Z,19.33
2018-08-31T09:19:29.707Z,19.41
2018-08-31T09:20:29.711Z,19.37
2018-08-31T09:21:29.708Z,19.52
2018-08-31T09:22:29.708Z,19.51
2018-08-31T09:23:29.710Z,19.39
2018-08-31T09:24:29.724Z,19.21
2018-08-31T09:25:29.717Z,19.02
2018-08-31T09:26:29.712Z,18.96
2018-08-31T09:27:29.711Z,19.02
2018-08-31T09:28:29.715Z,19.00
2018-08-31T09:29:29.715Z,19.09
2018-08-31T09:30:29.712Z,18.99
2018-08-31T09:31:29.713Z,18.89
2018-08-31T09:32:29.782Z,18.92
2018-08-31T09:33:29.710Z,18.86
2018-08-31T09:34:29.715Z,18.88
2018-08-31T09:35:29.717Z,18.88
2018-08-31T09:36:29.717Z,18.96
2018-08-31T09:37:29.716Z,19.11
2018-08-31T09:38:29.787Z,19.08
2018-08-31T09:39:29.726Z,18.93
2018-08-31T09:40:29.723Z,18.86
2018-08-31T09:41:29.719Z,18.78
2018-08-31T09:42:29.721Z,18.83
2018-08-31T09:43:29.724Z,18.73
2018-08-31T09:44:29.725Z,18.70
2018-08-31T09:45:29.724Z,18.66
2018-08-31T09:46:29.724Z,18.60
2018-08-31T09:47:29.726Z,18.52
2018-08-31T09:48:29.726Z,18.58
2018-08-31T09:49:29.773Z,18.45
2018-08-31T09:50:29.727Z,18.47
2018-08-31T09:51:29.726Z,18.37
2018-08-31T09:52:29.725Z,18.35
2018-08-31T09:53:29.728Z,18.43
2018-08-31T09:54:29.725Z,18.43
2018-08-31T09:55:29.725Z,18.49
2018-08-31T09:56:29.732Z,18.74
2018-08-31T09:57:29.809Z,18.77
2018-08-31T09:58:29.736Z,18.81
2018-08-31T09:59:29.736Z,18.83
2018-08-31T10:00:29.736Z,18.83
2018-08-31T10:01:29.733Z,18.70
2018-08-31T10:02:29.732Z,18.75
2018-08-31T10:03:29.731Z,18.68
2018-08-31T10:04:29.741Z,18.56
2018-08-31T10:05:29.738Z,18.65
2018-08-31T10:06:29.736Z,18.66
2018-08-31T10:07:29.732Z,18.77
2018-08-31T10:08:29.736Z,18.86
2018-08-31T10:09:29.735Z,19.02
2018-08-31T10:10:29.741Z,19.27
2018-08-31T10:11:29.741Z,19.21
2018-08-31T10:12:29.743Z,19.31
2018-08-31T10:13:29.813Z,19.34
2018-08-31T10:14:29.741Z,19.24
2018-08-31T10:15:29.744Z,19.30
2018-08-31T10:16:29.745Z,19.18
2018-08-31T10:17:29.742Z,19.37
2018-08-31T10:18:29.744Z,19.49
2018-08-31T10:19:29.747Z,19.66
2018-08-31T10:20:29.745Z,19.58
2018-08-31T10:21:29.746Z,19.74
2018-08-31T10:22:29.746Z,19.62
2018-08-31T10:23:29.747Z,19.66
2018-08-31T10:24:29.757Z,19.76
2018-08-31T10:25:29.748Z,19.86
2018-08-31T10:26:29.750Z,19.96
2018-08-31T10:27:29.752Z,20.03
2018-08-31T10:28:29.754Z,19.85
2018-08-31T10:29:29.751Z,19.92
2018-08-31T10:30:29.758Z,20.06
2018-08-31T10:31:29.757Z,20.14
2018-08-31T10:32:29.753Z,20.25
2018-08-31T10:33:29.755Z,20.39
2018-08-31T10:34:29.755Z,20.44
2018-08-31T10:35:29.757Z,20.43
2018-08-31T10:36:29.760Z,20.34
2018-08-31T10:37:29.761Z,20.47
2018-08-31T10:38:29.760Z,20.51
2018-08-31T10:39:29.762Z,20.50
2018-08-31T10:40:29.763Z,20.37
2018-08-31T10:41:29.759Z,20.22
2018-08-31T10:42:29.766Z,19.99
2018-08-31T10:43:29.768Z,19.95
2018-08-31T10:44:29.770Z,19.92
2018-08-31T10:45:29.770Z,19.94
2018-08-31T10:46:29.795Z,19.99
2018-08-31T10:47:29.773Z,20.10
2018-08-31T10:48:29.773Z,20.13
2018-08-31T10:49:29.778Z,19.89
2018-08-31T10:50:29.778Z,20.02
2018-08-31T10:51:29.777Z,19.69
2018-08-31T10:52:29.780Z,19.63
2018-08-31T10:53:29.776Z,19.67
2018-08-31T10:54:29.785Z,19.74
2018-08-31T10:55:29.790Z,19.73
2018-08-31T10:56:29.783Z,19.77
2018-08-31T10:57:29.785Z,19.92
2018-08-31T10:58:29.785Z,19.69
2018-08-31T10:59:29.806Z,19.71
2018-08-31T11:00:29.789Z,19.79
2018-08-31T11:01:29.793Z,19.69
2018-08-31T11:02:29.791Z,19.48
2018-08-31T11:03:29.795Z,19.63
2018-08-31T11:04:29.795Z,19.69
2018-08-31T11:05:29.794Z,19.91
2018-08-31T11:06:29.797Z,19.88
2018-08-31T11:07:29.796Z,20.04
2018-08-31T11:08:29.799Z,19.99
2018-08-31T11:09:29.803Z,20.18
2018-08-31T11:10:29.799Z,20.32
2018-08-31T11:11:29.800Z,20.40
2018-08-31T11:12:29.857Z,20.50
2018-08-31T11:13:29.806Z,20.62
2018-08-31T11:14:29.805Z,20.63
2018-08-31T11:15:29.806Z,20.39
2018-08-31T11:16:29.807Z,20.47
2018-08-31T11:17:29.811Z,20.44
2018-08-31T11:18:29.813Z,20.60
2018-08-31T11:19:29.811Z,20.63
2018-08-31T11:20:29.811Z,20.55
2018-08-31T11:21:29.813Z,20.62
2018-08-31T11:22:29.819Z,20.52
2018-08-31T11:23:29.817Z,20.51
2018-08-31T11:24:29.818Z,20.36
2018-08-31T11:25:29.817Z,20.56
2018-08-31T11:26:29.821Z,20.52
2018-08-31T11:27:29.823Z,20.39
2018-08-31T11:28:29.824Z,20.37
2018-08-31T11:29:29.824Z,20.39
2018-08-31T11:30:29.827Z,20.52
2018-08-31T11:31:29.829Z,20.59
2018-08-31T11:32:29.834Z,20.63
2018-08-31T11:33:29.830Z,20.78
2018-08-31T11:34:29.830Z,20.74
2018-08-31T11:35:29.834Z,20.58
2018-08-31T11:36:29.835Z,20.50
2018-08-31T11:37:29.837Z,20.59
2018-08-31T11:38:29.840Z,20.60
2018-08-31T11:39:29.866Z,20.95
2018-08-31T11:40:29.844Z,21.12
2018-08-31T11:41:29.851Z,21.45
2018-08-31T11:42:29.846Z,21.48
2018-08-31T11:43:29.852Z,21.32
2018-08-31T11:44:29.851Z,21.30
2018-08-31T11:45:29.852Z,21.40
2018-08-31T11:46:29.850Z,21.37
2018-08-31T11:47:29.852Z,21.58
2018-08-31T11:48:29.854Z,21.72
2018-08-31T11:49:29.852Z,21.93
2018-08-31T11:50:29.857Z,22.15
2018-08-31T11:51:29.859Z,22.15
2018-08-31T11:52:29.862Z,22.07
2018-08-31T11:53:29.860Z,22.17
2018-08-31T11:54:29.864Z,22.20
2018-08-31T11:55:29.863Z,22.11
2018-08-31T11:56:29.866Z,22.04
2018-08-31T11:57:29.870Z,21.80
2018-08-31T11:58:29.873Z,21.48
2018-08-31T11:59:29.873Z,21.54
2018-08-31T12:00:29.876Z,21.36
2018-08-31T12:01:29.952Z,21.37
2018-08-31T12:02:29.878Z,21.48
2018-08-31T12:03:29.881Z,21.32
2018-08-31T12:04:29.881Z,21.17
2018-08-31T12:05:29.884Z,21.24
2018-08-31T12:06:29.885Z,21.21
2018-08-31T12:07:29.886Z,21.27
2018-08-31T12:08:29.891Z,21.25
2018-08-31T12:09:29.891Z,21.17
2018-08-31T12:10:29.892Z,20.96
2018-08-31T12:11:29.908Z,20.90
2018-08-31T12:12:29.896Z,20.93
2018-08-31T12:13:29.898Z,20.85
2018-08-31T12:14:29.901Z,20.80
2018-08-31T12:15:29.903Z,20.78
2018-08-31T12:16:29.905Z,20.84
2018-08-31T12:17:29.904Z,21.11
2018-08-31T12:18:29.912Z,21.35
2018-08-31T12:19:29.908Z,21.58
2018-08-31T12:20:29.911Z,21.75
2018-08-31T12:21:29.916Z,21.83
2018-08-31T12:22:29.914Z,21.95
2018-08-31T12:23:29.917Z,21.88
2018-08-31T12:24:29.921Z,22.06
2018-08-31T12:25:29.920Z,21.85
2018-08-31T12:26:29.922Z,21.88
2018-08-31T12:27:29.927Z,21.79
2018-08-31T12:28:29.928Z,21.77
2018-08-31T12:29:29.927Z,21.77
2018-08-31T12:30:29.930Z,21.95
2018-08-31T12:31:29.935Z,21.60
2018-08-31T12:32:29.936Z,21.83
2018-08-31T12:33:29.933Z,21.79
2018-08-31T12:34:29.940Z,21.82
2018-08-31T12:35:29.940Z,21.52
2018-08-31T12:36:29.942Z,21.69
2018-08-31T12:37:29.943Z,21.88
2018-08-31T12:38:29.945Z,21.95
2018-08-31T12:39:29.950Z,21.89
2018-08-31T12:40:29.953Z,21.72
2018-08-31T12:41:29.945Z,21.64
2018-08-31T12:42:29.954Z,21.52
2018-08-31T12:43:29.957Z,21.35
2018-08-31T12:44:29.957Z,21.24
2018-08-31T12:45:29.961Z,21.17
2018-08-31T12:46:29.964Z,21.22
2018-08-31T12:47:29.967Z,21.12
2018-08-31T12:48:29.971Z,20.88
2018-08-31T12:49:29.967Z,20.72
2018-08-31T12:50:29.969Z,20.77
2018-08-31T12:51:29.974Z,20.87
2018-08-31T12:52:29.977Z,20.85